Time;durP1;ratioP1;P1;durP2;ratioP2;P2;SDS_P1;SDS_P2;PMS_P1;PMS_P2;Temp;Humidity;BMP_temperature;BMP_pressure;BME280_temperature;BME280_humidity;BME280_pressure;Samples;Min_cycle;Max_cycle;Signal;HPM_P1;HPM_P2
2022/09/10 00:01:48;;;;;;;;;4.00;3.00;;;;;17.11;57.96;100944.00;5000842;28;45223;-62
2022/09/10 00:04:14;;;;;;;;;2.00;1.00;;;;;17.11;58.25;100955.47;5000676;28;45355;-62
2022/09/10 00:06:41;;;;;;;;;4.00;2.75;;;;;17.08;58.67;100954.72;5000826;28;45303;-62
2022/09/10 00:09:07;;;;;;;;;3.00;2.00;;;;;17.08;58.42;100952.97;4999602;28;45536;-62
2022/09/10 00:11:33;;;;;;;;;4.00;3.25;;;;;17.05;58.50;100947.75;5000611;28;47154;-62
2022/09/10 00:14:00;;;;;;;;;4.00;2.25;;;;;17.04;58.48;100946.00;5000361;28;45333;-63
2022/09/10 00:16:27;;;;;;;;;3.25;2.50;;;;;17.02;58.74;100956.69;5000860;28;45285;-62
2022/09/10 00:18:53;;;;;;;;;1.75;1.25;;;;;16.97;58.61;100948.03;5000446;28;45530;-63
2022/09/10 00:21:19;;;;;;;;;3.50;3.00;;;;;16.97;58.53;100949.84;4999420;28;45461;-62
2022/09/10 00:23:46;;;;;;;;;0.50;0.50;;;;;16.93;58.83;100949.09;5000201;28;45743;-62
2022/09/10 00:26:17;;;;;;;;;3.25;2.25;;;;;16.95;58.78;100947.22;5000313;28;45198;-62
2022/09/10 00:28:43;;;;;;;;;5.00;2.25;;;;;16.88;58.92;100938.59;5000201;28;45326;-62
2022/09/10 00:31:09;;;;;;;;;2.75;2.50;;;;;16.92;58.89;100951.78;5000188;28;45201;-62
2022/09/10 00:33:35;;;;;;;;;6.50;2.75;;;;;16.92;58.72;100935.84;5000095;28;45263;-62
2022/09/10 00:36:04;;;;;;;;;3.50;2.00;;;;;16.94;58.96;100941.97;5000229;28;45179;-62
2022/09/10 00:38:30;;;;;;;;;3.50;2.00;;;;;16.89;58.99;100948.31;5000314;28;45271;-62
2022/09/10 00:41:02;;;;;;;;;5.00;2.50;;;;;16.86;58.89;100936.94;4999463;28;46544;-62
2022/09/10 00:44:04;;;;;;;;;5.50;2.75;;;;;16.90;58.88;100935.88;5000071;28;45394;-62
2022/09/10 00:46:35;;;;;;;;;1.75;1.75;;;;;16.89;58.95;100935.03;4999138;28;45284;-62
2022/09/10 00:49:09;;;;;;;;;3.50;2.50;;;;;16.85;59.11;100940.50;4999489;28;45330;-62
2022/09/10 00:51:36;;;;;;;;;2.00;2.00;;;;;16.82;58.97;100933.53;4999966;28;47079;-62
2022/09/10 00:54:04;;;;;;;;;3.50;2.00;;;;;16.85;59.21;100946.66;4999567;28;45319;-62
2022/09/10 00:56:31;;;;;;;;;0.25;0.25;;;;;16.81;58.96;100939.75;4979150;28;45197;-62
2022/09/10 00:58:57;;;;;;;;;2.50;1.75;;;;;16.82;59.20;100945.94;4995708;28;45526;-62
2022/09/10 01:01:22;;;;;;;;;2.00;1.25;;;;;16.81;59.03;100936.25;5000015;28;45376;-62
2022/09/10 01:03:49;;;;;;;;;3.25;2.50;;;;;16.81;59.04;100931.78;4980795;28;45359;-62
2022/09/10 01:06:16;;;;;;;;;3.00;1.00;;;;;16.79;59.37;100940.72;5000138;28;45465;-62
2022/09/10 01:08:41;;;;;;;;;1.00;1.00;;;;;16.80;59.26;100943.31;4999555;28;45314;-62
2022/09/10 01:11:25;;;;;;;;;2.50;2.00;;;;;16.78;59.17;100931.91;4978656;28;47953;-62
2022/09/10 01:14:28;;;;;;;;;5.25;3.00;;;;;16.78;59.46;100939.88;4997660;28;45281;-62
2022/09/10 01:17:23;;;;;;;;;3.00;3.00;;;;;16.77;59.50;100938.13;4999726;28;45287;-62
2022/09/10 01:19:57;;;;;;;;;4.00;2.50;;;;;16.74;59.28;100927.63;4999536;28;45342;-62
2022/09/10 01:22:37;;;;;;;;;1.75;1.75;;;;;16.75;59.21;100942.63;4999445;28;45344;-62
2022/09/10 01:25:16;;;;;;;;;2.75;2.75;;;;;16.75;59.48;100929.34;4999340;28;46310;-62
2022/09/10 01:27:46;;;;;;;;;1.00;1.00;;;;;16.76;59.04;100931.09;4999396;28;45168;-62
2022/09/10 01:30:23;;;;;;;;;4.00;3.00;;;;;16.76;59.34;100944.38;4999509;28;45476;-62
2022/09/10 01:32:58;;;;;;;;;3.00;3.00;;;;;16.77;59.35;100934.63;4979610;28;46120;-62
2022/09/10 01:35:36;;;;;;;;;1.50;1.50;;;;;16.69;59.51;100929.59;4999402;28;45176;-62
2022/09/10 01:38:07;;;;;;;;;4.25;3.00;;;;;16.66;59.62;100935.03;4999542;28;45305;-62
2022/09/10 01:40:34;;;;;;;;;3.00;2.75;;;;;16.69;59.33;100935.78;4978368;28;45382;-62
2022/09/10 01:43:02;;;;;;;;;4.00;3.00;;;;;16.71;59.41;100941.00;4997339;28;47237;-62
2022/09/10 01:45:28;;;;;;;;;3.00;2.75;;;;;16.69;59.66;100935.78;4978353;28;45438;-62
2022/09/10 01:48:25;;;;;;;;;2.75;2.50;;;;;16.69;59.65;100938.44;4997977;28;45469;-62
2022/09/10 01:51:41;;;;;;;;;3.25;2.00;;;;;16.68;59.28;100935.84;4999244;28;45363;-62
2022/09/10 01:54:27;;;;;;;;;4.00;2.00;;;;;16.64;59.57;100931.53;4964317;28;48132;-62
2022/09/10 01:57:27;;;;;;;;;2.25;2.25;;;;;16.65;59.56;100933.28;4999210;28;45409;-62
2022/09/10 02:00:11;;;;;;;;;3.00;3.00;;;;;16.63;59.91;100941.31;5002246;28;45477;-62
2022/09/10 02:03:00;;;;;;;;;2.75;1.75;;;;;16.61;59.45;100943.13;5002397;28;45549;-62
2022/09/10 02:05:28;;;;;;;;;2.00;2.00;;;;;16.60;59.54;100940.53;4991529;28;46142;-62
2022/09/10 02:08:00;;;;;;;;;4.25;2.25;;;;;16.61;59.63;100942.28;5002427;28;45298;-62
2022/09/10 02:10:26;;;;;;;;;4.00;2.25;;;;;16.60;59.75;100940.53;4981480;28;45426;-62
2022/09/10 02:12:52;;;;;;;;;3.50;2.50;;;;;16.58;59.47;100936.16;4993087;28;45402;-62
2022/09/10 02:15:21;;;;;;;;;2.00;2.00;;;;;16.62;59.78;100946.66;5002300;28;46244;-62
2022/09/10 02:17:48;;;;;;;;;3.00;2.75;;;;;16.63;59.36;100945.72;5002517;28;45251;-62
2022/09/10 02:20:14;;;;;;;;;6.25;3.00;;;;;16.66;59.36;100940.31;5002334;28;45412;-62
2022/09/10 02:22:48;;;;;;;;;4.25;2.50;;;;;16.66;59.55;100942.97;5002315;28;45483;-62
2022/09/10 02:25:15;;;;;;;;;2.50;2.50;;;;;16.64;59.32;100935.06;5001826;28;46223;-62
2022/09/10 02:27:42;;;;;;;;;5.75;4.75;;;;;16.63;59.53;100937.75;5002217;28;45430;-62
2022/09/10 02:30:07;;;;;;;;;3.50;3.50;;;;;16.62;59.79;100944.88;5002120;28;45524;-62
2022/09/10 02:32:33;;;;;;;;;4.00;3.00;;;;;16.62;59.27;100933.41;5002107;28;45389;-62
2022/09/10 02:34:58;;;;;;;;;3.00;3.00;;;;;16.64;59.33;100945.69;4983481;28;48145;-62
2022/09/10 02:37:23;;;;;;;;;2.25;2.25;;;;;16.63;59.65;100943.97;4992170;28;45244;-62
2022/09/10 02:39:49;;;;;;;;;3.00;3.00;;;;;16.65;59.28;100951.84;4981069;28;45379;-62
2022/09/10 02:42:15;;;;;;;;;4.00;3.00;;;;;16.65;59.32;100938.59;4994519;28;45266;-62
2022/09/10 02:44:41;;;;;;;;;3.50;3.50;;;;;16.64;59.55;100942.16;5001124;28;46353;-62
2022/09/10 02:47:06;;;;;;;;;8.75;4.00;;;;;16.65;59.31;100944.75;5000992;28;45235;-62
2022/09/10 02:49:33;;;;;;;;;3.50;3.50;;;;;16.67;59.36;100947.38;5001977;28;45437;-62
2022/09/10 02:52:01;;;;;;;;;5.50;4.75;;;;;16.64;59.30;100940.38;4980857;28;45382;-62
2022/09/10 02:54:27;;;;;;;;;2.75;2.50;;;;;16.63;59.50;100945.72;5000386;28;46355;-62
2022/09/10 02:56:52;;;;;;;;;2.75;2.50;;;;;16.67;59.26;100948.22;4980999;28;45235;-62
2022/09/10 02:59:17;;;;;;;;;4.75;3.50;;;;;16.69;59.45;100950.81;5000609;28;45243;-62
2022/09/10 03:01:43;;;;;;;;;3.50;2.25;;;;;16.71;59.58;100957.78;4980918;28;45771;-62
2022/09/10 03:04:08;;;;;;;;;3.00;3.00;;;;;16.71;59.33;100957.78;4996433;28;47951;-62
2022/09/10 03:06:34;;;;;;;;;5.50;3.50;;;;;16.72;59.37;100956.03;4994280;28;45215;-62
2022/09/10 03:09:00;;;;;;;;;6.00;4.00;;;;;16.73;59.42;100953.31;5001466;28;45369;-62
2022/09/10 03:11:26;;;;;;;;;2.00;2.00;;;;;16.75;59.39;100974.47;5000686;28;45493;-62
2022/09/10 03:13:52;;;;;;;;;7.50;3.00;;;;;16.77;59.26;100967.34;5001220;28;46026;-62
2022/09/10 03:16:17;;;;;;;;;5.50;3.75;;;;;16.80;59.39;100963.69;5001566;28;45332;-62
2022/09/10 03:18:43;;;;;;;;;4.50;4.50;;;;;16.78;59.36;100971.72;5001384;28;45319;-62
2022/09/10 03:21:13;;;;;;;;;0.50;0.50;;;;;16.73;59.54;100963.91;5001263;28;45391;-62
2022/09/10 03:23:39;;;;;;;;;4.50;3.50;;;;;16.73;59.81;100958.59;5000922;28;46430;-63
2022/09/10 03:26:05;;;;;;;;;4.00;4.00;;;;;16.80;59.41;100963.69;4990750;28;45243;-62
2022/09/10 03:28:31;;;;;;;;;4.50;3.75;;;;;16.80;59.55;100967.19;5001101;28;45390;-62
2022/09/10 03:30:57;;;;;;;;;3.00;3.00;;;;;16.83;59.53;100961.81;5001468;28;45223;-62
2022/09/10 03:33:22;;;;;;;;;3.00;3.00;;;;;16.83;59.20;100955.59;5000765;28;45361;-62
2022/09/10 03:35:48;;;;;;;;;5.00;4.25;;;;;16.84;59.47;100960.88;4989418;28;45268;-62
2022/09/10 03:38:13;;;;;;;;;6.50;4.75;;;;;16.85;59.42;100954.63;5001053;28;45493;-62
2022/09/10 03:40:39;;;;;;;;;4.00;3.00;;;;;16.87;59.14;100955.44;5001232;28;45266;-62
2022/09/10 03:43:04;;;;;;;;;3.50;3.00;;;;;16.89;59.19;100948.31;4979646;28;46872;-62
2022/09/10 03:45:30;;;;;;;;;3.25;3.00;;;;;16.88;59.31;100957.19;4996628;28;45686;-62
2022/09/10 03:47:55;;;;;;;;;7.00;3.00;;;;;16.87;59.45;100949.28;4999688;28;45465;-62
2022/09/10 03:50:21;;;;;;;;;3.00;1.50;;;;;16.89;59.28;100958.03;5000974;28;45452;-62
2022/09/10 03:52:46;;;;;;;;;3.00;2.00;;;;;16.93;59.28;100953.53;5000575;28;45972;-62
2022/09/10 03:55:12;;;;;;;;;6.25;2.00;;;;;16.90;59.28;100951.81;5000786;28;45439;-62
2022/09/10 03:57:37;;;;;;;;;3.75;2.50;;;;;16.93;59.19;100957.06;5000698;28;45287;-62
2022/09/10 04:00:03;;;;;;;;;5.50;5.00;;;;;16.92;59.35;100952.66;5000749;28;45450;-62
2022/09/10 04:02:29;;;;;;;;;5.00;3.00;;;;;16.90;59.38;100949.16;5000499;28;46996;-62
2022/09/10 04:04:54;;;;;;;;;3.50;3.00;;;;;16.94;59.28;100955.25;5000618;28;45244;-62
2022/09/10 04:07:20;;;;;;;;;2.00;2.00;;;;;16.93;59.36;100957.06;5000600;28;45223;-62
2022/09/10 04:09:45;;;;;;;;;3.25;2.00;;;;;16.97;59.46;100956.00;5000690;28;45457;-62
2022/09/10 04:12:11;;;;;;;;;3.00;2.00;;;;;16.99;59.23;100958.59;4979483;28;48164;-62
2022/09/10 04:14:36;;;;;;;;;3.25;3.00;;;;;16.99;59.11;100958.59;4992309;28;45231;-62
2022/09/10 04:17:02;;;;;;;;;3.75;3.75;;;;;17.00;59.32;100960.34;5000720;28;45180;-62
2022/09/10 04:19:27;;;;;;;;;4.00;3.00;;;;;17.02;58.98;100955.84;5000170;28;45480;-62
2022/09/10 04:21:53;;;;;;;;;4.00;2.25;;;;;17.03;59.36;100960.22;4999980;28;45425;-62
2022/09/10 04:24:18;;;;;;;;;6.25;3.50;;;;;17.01;59.16;100954.97;5000568;28;45301;-62
2022/09/10 04:26:44;;;;;;;;;4.00;3.00;;;;;17.01;59.21;100954.97;5000450;28;45540;-62
2022/09/10 04:29:10;;;;;;;;;3.25;3.00;;;;;17.02;59.43;100958.50;5000374;28;45430;-62
2022/09/10 04:31:36;;;;;;;;;3.00;3.00;;;;;17.03;59.13;100966.41;5000304;28;45410;-62
2022/09/10 04:34:01;;;;;;;;;3.50;2.25;;;;;17.00;59.37;100965.66;5000074;28;45329;-62
2022/09/10 04:36:27;;;;;;;;;6.50;3.75;;;;;17.00;59.29;100960.34;5000337;28;45341;-62
2022/09/10 04:38:52;;;;;;;;;6.75;4.75;;;;;17.01;59.38;100960.28;5000347;28;45407;-62
2022/09/10 04:41:18;;;;;;;;;5.50;5.50;;;;;16.98;59.31;100964.81;5000055;28;45511;-62
2022/09/10 04:43:44;;;;;;;;;2.00;2.00;;;;;16.99;59.36;100950.63;5000227;28;45330;-62
2022/09/10 04:46:10;;;;;;;;;5.25;3.25;;;;;16.98;59.35;100959.50;5000127;28;45310;-62
2022/09/10 04:48:35;;;;;;;;;2.50;2.25;;;;;17.00;59.18;100952.38;5000236;28;45173;-61
2022/09/10 04:51:01;;;;;;;;;3.25;2.00;;;;;17.01;59.33;100975.34;5000023;28;46059;-62
2022/09/10 04:53:26;;;;;;;;;5.25;3.50;;;;;17.02;59.03;100969.97;5000162;28;45223;-62
2022/09/10 04:55:53;;;;;;;;;3.50;2.50;;;;;17.02;59.04;100969.97;5000244;28;45395;-62
2022/09/10 04:58:20;;;;;;;;;4.00;3.25;;;;;17.01;59.19;100970.88;5000094;28;45326;-62
2022/09/10 05:00:45;;;;;;;;;3.75;3.25;;;;;17.03;59.16;100979.69;4999720;28;46096;-62
2022/09/10 05:03:12;;;;;;;;;3.75;3.75;;;;;16.98;59.40;100970.13;5000013;28;45267;-62
2022/09/10 05:05:38;;;;;;;;;1.00;1.00;;;;;16.99;59.40;100985.16;4982589;28;45425;-62
2022/09/10 05:08:04;;;;;;;;;4.00;4.00;;;;;16.97;59.04;100982.56;4999678;28;45405;-62
2022/09/10 05:10:30;;;;;;;;;5.00;3.00;;;;;16.96;59.26;100974.66;4999637;28;46077;-62
2022/09/10 05:12:55;;;;;;;;;7.75;4.25;;;;;16.98;59.32;100981.63;4999778;28;45232;-62
2022/09/10 05:15:21;;;;;;;;;3.25;3.25;;;;;16.95;59.28;100984.38;4999888;28;45251;-62
2022/09/10 05:17:46;;;;;;;;;4.00;3.00;;;;;16.95;59.36;100981.72;4978966;28;45192;-62
2022/09/10 05:20:12;;;;;;;;;5.00;4.00;;;;;16.97;59.34;100994.97;4996783;28;45409;-62
2022/09/10 05:22:38;;;;;;;;;3.25;3.25;;;;;16.95;59.12;100999.47;4999526;28;45362;-62
2022/09/10 05:25:05;;;;;;;;;4.75;2.00;;;;;16.95;59.49;101005.63;4999584;28;45355;-62
2022/09/10 05:27:30;;;;;;;;;4.00;4.00;;;;;16.95;59.32;100999.47;4965644;28;45422;-62
2022/09/10 05:29:56;;;;;;;;;3.25;3.00;;;;;16.94;59.27;101003.03;4999484;28;45436;-62
2022/09/10 05:32:21;;;;;;;;;5.00;3.75;;;;;16.90;59.51;101005.78;4999318;28;45637;-62
2022/09/10 05:34:47;;;;;;;;;4.50;3.00;;;;;16.93;59.31;101009.25;5002206;28;45334;-62
2022/09/10 05:37:17;;;;;;;;;3.25;2.25;;;;;16.92;59.34;101010.16;5003051;28;45250;-62
2022/09/10 05:39:43;;;;;;;;;6.75;4.75;;;;;16.94;59.51;101008.34;5002718;28;47799;-62
2022/09/10 05:42:08;;;;;;;;;2.25;2.25;;;;;16.88;59.34;101004.97;5003082;28;45302;-62
2022/09/10 05:44:34;;;;;;;;;3.75;3.75;;;;;16.89;59.62;101001.38;5002895;28;45512;-62
2022/09/10 05:47:00;;;;;;;;;3.25;1.75;;;;;16.91;59.55;101006.66;5002945;28;45307;-62
2022/09/10 05:49:25;;;;;;;;;4.75;3.25;;;;;16.85;59.25;100999.75;5002691;28;46360;-62
2022/09/10 05:51:51;;;;;;;;;2.75;2.75;;;;;16.93;59.10;101006.59;5002746;28;45382;-62
2022/09/10 05:54:16;;;;;;;;;5.00;2.50;;;;;16.92;59.74;101015.47;5002570;28;45427;-61
2022/09/10 05:56:41;;;;;;;;;2.00;2.00;;;;;16.90;59.40;101013.75;5002788;28;45500;-61
2022/09/10 05:59:08;;;;;;;;;3.00;3.00;;;;;16.93;59.17;101011.91;5002549;28;45321;-61
2022/09/10 06:01:34;;;;;;;;;3.25;1.50;;;;;16.93;59.52;101018.09;5002704;28;45258;-61
2022/09/10 06:03:59;;;;;;;;;4.25;2.75;;;;;16.95;59.29;101023.34;5002273;28;45177;-61
2022/09/10 06:06:27;;;;;;;;;5.00;3.00;;;;;16.95;59.38;101018.03;5002820;28;45244;-61
2022/09/10 06:08:53;;;;;;;;;2.00;2.00;;;;;16.97;59.26;101032.13;5002241;28;46227;-61
2022/09/10 06:11:18;;;;;;;;;6.50;4.75;;;;;16.98;59.30;101036.50;5002569;28;45405;-61
2022/09/10 06:13:43;;;;;;;;;3.25;2.50;;;;;16.98;59.41;101037.38;5002403;28;45354;-61
2022/09/10 06:16:09;;;;;;;;;4.50;4.00;;;;;16.96;59.40;101030.41;4981600;28;48328;-61
2022/09/10 06:18:34;;;;;;;;;5.00;4.00;;;;;16.95;58.89;101037.47;4999709;28;45349;-62
2022/09/10 06:21:02;;;;;;;;;5.00;4.00;;;;;16.98;59.28;101037.38;5002469;28;45302;-61
2022/09/10 06:23:27;;;;;;;;;4.75;2.50;;;;;17.00;59.40;101047.94;5002197;28;45252;-62
2022/09/10 06:26:00;;;;;;;;;5.00;4.25;;;;;17.02;59.21;101048.75;5002347;28;45232;-61
2022/09/10 06:28:27;;;;;;;;;3.00;3.00;;;;;17.01;59.38;101050.53;5001875;28;46178;-61
2022/09/10 06:30:52;;;;;;;;;5.50;3.25;;;;;17.01;59.36;101058.50;5001544;28;45369;-61
2022/09/10 06:33:18;;;;;;;;;4.00;4.00;;;;;17.03;59.37;101061.09;5001994;28;45528;-62
2022/09/10 06:35:51;;;;;;;;;3.25;3.00;;;;;17.01;59.28;101065.59;5002181;28;45189;-61
2022/09/10 06:38:16;;;;;;;;;2.25;2.00;;;;;16.93;59.18;101046.41;4987988;28;45327;-61
2022/09/10 06:40:56;;;;;;;;;2.50;2.50;;;;;17.04;59.29;101070.78;4984307;28;45354;-61
2022/09/10 06:43:24;;;;;;;;;4.50;2.00;;;;;17.02;59.18;101068.19;5002210;28;45284;-61
2022/09/10 06:45:51;;;;;;;;;5.25;5.00;;;;;17.06;59.38;101072.47;5000597;28;45362;-61
2022/09/10 06:48:18;;;;;;;;;3.75;3.00;;;;;17.05;59.42;101054.78;5001693;28;46414;-61
2022/09/10 06:51:11;;;;;;;;;3.75;3.25;;;;;17.04;59.44;101066.38;5000834;28;45244;-62
2022/09/10 06:53:38;;;;;;;;;2.75;2.00;;;;;17.08;59.32;101075.09;5000183;28;45360;-62
2022/09/10 06:56:07;;;;;;;;;3.50;2.00;;;;;17.09;59.37;101074.13;5001862;28;45539;-62
2022/09/10 06:58:35;;;;;;;;;4.00;3.00;;;;;17.09;59.27;101065.31;5001491;28;47269;-62
2022/09/10 07:01:08;;;;;;;;;7.00;5.25;;;;;17.08;59.42;101067.13;5001798;28;45358;-62
2022/09/10 07:03:34;;;;;;;;;5.00;4.25;;;;;17.06;59.42;101068.97;5001777;28;45390;-61
2022/09/10 07:06:07;;;;;;;;;6.25;4.00;;;;;17.10;59.24;101072.38;4980853;28;45338;-62
2022/09/10 07:08:32;;;;;;;;;7.50;5.00;;;;;17.09;59.43;101074.13;4983718;28;47273;-61
2022/09/10 07:11:00;;;;;;;;;3.75;3.00;;;;;17.11;59.33;101079.41;5001671;28;45310;-62
2022/09/10 07:13:26;;;;;;;;;5.25;5.25;;;;;17.13;59.06;101075.78;5001534;28;45362;-62
2022/09/10 07:15:52;;;;;;;;;4.00;2.75;;;;;17.17;59.31;101081.84;5000618;28;45515;-61
2022/09/10 07:18:17;;;;;;;;;1.00;1.00;;;;;17.17;59.11;101090.69;5001265;28;46285;-62
2022/09/10 07:20:44;;;;;;;;;5.75;4.00;;;;;17.22;59.02;101077.25;4980591;28;45383;-62
2022/09/10 07:23:14;;;;;;;;;5.00;3.25;;;;;17.25;59.30;101079.78;4999332;28;45401;-61
2022/09/10 07:25:40;;;;;;;;;4.25;3.50;;;;;17.27;59.24;101079.72;4991148;28;45303;-61
2022/09/10 07:28:12;;;;;;;;;3.50;3.00;;;;;17.31;59.25;101089.31;4982653;28;46047;-61
2022/09/10 07:30:38;;;;;;;;;8.50;4.00;;;;;17.37;59.18;101089.06;5001314;28;45313;-62
2022/09/10 07:33:04;;;;;;;;;5.00;4.00;;;;;17.40;59.26;101090.78;5001038;28;45296;-62
2022/09/10 07:35:30;;;;;;;;;3.75;3.25;;;;;17.44;59.07;101098.53;5001166;28;45483;-62
2022/09/10 07:37:55;;;;;;;;;4.50;4.25;;;;;17.47;59.02;101100.22;5000910;28;45330;-62
2022/09/10 07:40:22;;;;;;;;;6.00;6.00;;;;;17.48;59.18;101102.84;5001331;28;45326;-62
2022/09/10 07:42:47;;;;;;;;;5.00;5.00;;;;;17.50;58.89;101106.28;5001080;28;45406;-62
2022/09/10 07:45:14;;;;;;;;;3.25;3.25;;;;;17.55;58.97;101106.97;5001270;28;45578;-62
2022/09/10 07:47:41;;;;;;;;;4.00;4.00;;;;;17.54;58.82;101099.06;5000991;28;45311;-62
2022/09/10 07:50:07;;;;;;;;;7.25;5.00;;;;;17.58;58.91;101107.78;5000967;28;45327;-62
2022/09/10 07:52:32;;;;;;;;;4.25;4.25;;;;;17.62;58.83;101112.06;5000949;28;45215;-63
2022/09/10 07:54:59;;;;;;;;;9.00;4.00;;;;;17.67;59.04;101110.09;4979840;28;45777;-62
2022/09/10 07:57:25;;;;;;;;;3.75;3.00;;;;;17.68;58.92;101119.81;4997239;28;46347;-62
2022/09/10 07:59:50;;;;;;;;;4.00;4.00;;;;;17.70;58.88;101113.50;5000721;28;45445;-62
2022/09/10 08:02:15;;;;;;;;;6.75;3.50;;;;;17.74;59.08;101110.75;5000689;28;45486;-62
2022/09/10 08:04:41;;;;;;;;;4.25;3.00;;;;;17.79;58.96;101120.25;5000753;28;45599;-61
2022/09/10 08:07:07;;;;;;;;;4.00;3.75;;;;;17.79;58.86;101117.59;4999824;28;46477;-62
2022/09/10 08:09:32;;;;;;;;;3.50;3.50;;;;;17.85;58.88;101121.84;5000652;28;45257;-62
2022/09/10 08:11:58;;;;;;;;;2.00;1.75;;;;;17.88;58.60;101129.69;5000874;28;45143;-62
2022/09/10 08:14:24;;;;;;;;;3.00;2.75;;;;;17.90;58.89;101124.28;5000587;28;45385;-62
2022/09/10 08:16:49;;;;;;;;;3.00;2.50;;;;;17.93;58.42;101125.03;5000336;28;46334;-61
2022/09/10 08:19:15;;;;;;;;;6.50;4.00;;;;;17.95;58.63;101122.34;5000483;28;45475;-61
2022/09/10 08:21:40;;;;;;;;;6.25;4.25;;;;;17.94;58.76;101128.63;5000046;28;45506;-61
2022/09/10 08:24:07;;;;;;;;;5.75;3.00;;;;;18.02;58.68;101134.47;4990793;28;45467;-61
2022/09/10 08:26:32;;;;;;;;;2.50;2.50;;;;;18.06;58.73;101137.91;4997089;28;46308;-60
2022/09/10 08:28:58;;;;;;;;;5.50;3.75;;;;;18.08;58.64;101136.91;5000100;28;45477;-60
2022/09/10 08:31:25;;;;;;;;;4.00;2.75;;;;;18.07;58.66;101135.16;5000434;28;45456;-60
2022/09/10 08:33:52;;;;;;;;;3.75;3.00;;;;;18.09;58.57;101141.31;5000148;28;45451;-61
2022/09/10 08:36:20;;;;;;;;;3.00;3.00;;;;;18.11;58.36;101141.22;5000092;28;45346;-61
2022/09/10 08:38:46;;;;;;;;;4.50;4.00;;;;;18.12;58.42;101143.81;5000136;28;45407;-61
2022/09/10 08:41:20;;;;;;;;;3.75;3.75;;;;;18.12;58.59;101141.16;5000226;28;45532;-61
2022/09/10 08:44:04;;;;;;;;;5.00;3.50;;;;;18.12;58.11;101148.28;5000130;28;45528;-61
2022/09/10 08:46:34;;;;;;;;;3.00;2.00;;;;;18.12;58.34;101142.97;5000070;28;46259;-61
2022/09/10 08:49:21;;;;;;;;;4.00;2.75;;;;;18.17;58.13;101152.47;5000006;28;45398;-61
2022/09/10 08:51:49;;;;;;;;;4.75;3.25;;;;;18.16;58.46;101150.78;5000390;28;45440;-61
2022/09/10 08:54:26;;;;;;;;;3.75;3.00;;;;;18.18;58.51;101151.56;4999670;28;45386;-61
2022/09/10 08:56:58;;;;;;;;;2.75;2.75;;;;;18.18;58.13;101150.72;5000011;28;47360;-61
2022/09/10 08:59:31;;;;;;;;;3.50;3.50;;;;;18.25;58.13;101159.31;4999847;28;45243;-61
2022/09/10 09:02:02;;;;;;;;;4.50;3.75;;;;;18.22;58.26;101156.78;4998989;28;45334;-61
2022/09/10 09:04:44;;;;;;;;;4.25;4.25;;;;;18.28;58.16;101159.19;4999621;28;45243;-61
2022/09/10 09:07:18;;;;;;;;;4.25;3.25;;;;;18.27;58.42;101157.47;4999701;28;45299;-61
2022/09/10 09:09:46;;;;;;;;;2.25;2.25;;;;;18.31;58.02;101161.72;4998968;28;45322;-62
2022/09/10 09:13:00;;;;;;;;;7.75;3.25;;;;;18.34;58.12;101170.44;4999803;28;45349;-63
2022/09/10 09:15:35;;;;;;;;;3.00;3.00;;;;;18.34;58.36;101159.81;4963297;28;45355;-61
2022/09/10 09:18:19;;;;;;;;;3.50;1.00;;;;;18.42;58.32;101161.31;4999721;28;46452;-61
2022/09/10 09:21:05;;;;;;;;;5.00;3.00;;;;;18.47;58.55;101170.81;4999785;28;45271;-62
2022/09/10 09:23:54;;;;;;;;;2.00;1.75;;;;;18.54;58.44;101173.22;4999555;28;45228;-61
2022/09/10 09:26:23;;;;;;;;;2.00;2.00;;;;;18.57;58.16;101170.47;4999518;28;45283;-62
2022/09/10 09:29:17;;;;;;;;;3.00;3.00;;;;;18.52;58.13;101168.81;4999574;28;45343;-62
2022/09/10 09:31:48;;;;;;;;;4.00;4.00;;;;;18.65;57.91;101184.31;4999024;28;45850;-60
2022/09/10 09:34:31;;;;;;;;;5.50;4.25;;;;;18.66;58.28;101181.56;4999463;28;45411;-60
2022/09/10 09:37:03;;;;;;;;;1.50;1.00;;;;;18.62;58.18;101173.78;4999303;28;45231;-61
2022/09/10 09:39:40;;;;;;;;;2.75;2.00;;;;;18.64;58.27;101178.13;4998967;28;45352;-62
2022/09/10 09:42:08;;;;;;;;;2.25;2.00;;;;;18.70;58.10;101178.81;4999464;28;45319;-62
2022/09/10 09:44:42;;;;;;;;;2.00;2.00;;;;;18.69;58.01;101183.25;4999337;28;45452;-60
2022/09/10 09:47:08;;;;;;;;;4.00;4.00;;;;;18.70;57.88;101177.00;4999590;28;45333;-61
2022/09/10 09:49:34;;;;;;;;;2.25;2.00;;;;;18.76;58.33;101183.88;4999162;28;45283;-61
2022/09/10 09:52:13;;;;;;;;;4.00;4.00;;;;;18.80;58.29;101191.69;4999220;28;45258;-61
2022/09/10 09:54:44;;;;;;;;;3.25;3.00;;;;;18.83;57.77;101188.88;4999374;28;45378;-61
2022/09/10 09:57:19;;;;;;;;;2.75;2.75;;;;;18.89;58.18;101198.38;4999378;28;45320;-61
2022/09/10 09:59:47;;;;;;;;;1.25;1.25;;;;;18.93;58.10;101207.16;4977411;28;46276;-61
2022/09/10 10:02:17;;;;;;;;;2.00;1.00;;;;;18.96;57.89;101199.03;4995388;28;45421;-61
2022/09/10 10:05:06;;;;;;;;;3.00;3.00;;;;;18.96;57.85;101197.22;4999459;28;45353;-62
2022/09/10 10:07:34;;;;;;;;;4.00;3.00;;;;;18.94;57.90;101200.91;4998848;28;45348;-61
2022/09/10 10:10:02;;;;;;;;;2.00;2.00;;;;;18.95;58.23;101197.31;4981339;28;47016;-61
2022/09/10 10:12:33;;;;;;;;;2.00;2.00;;;;;18.94;58.21;101207.09;4998918;28;45271;-61
2022/09/10 10:15:01;;;;;;;;;3.25;2.00;;;;;18.92;58.12;101208.09;4999162;28;45507;-61
2022/09/10 10:17:40;;;;;;;;;3.25;2.00;;;;;18.88;57.88;101206.44;4999084;28;45252;-61
2022/09/10 10:20:14;;;;;;;;;3.00;2.00;;;;;18.82;58.28;101207.59;5000584;28;45282;-61
2022/09/10 10:22:44;;;;;;;;;4.75;3.00;;;;;18.78;58.09;101201.50;5002230;28;45375;-61
2022/09/10 10:25:43;;;;;;;;;4.00;4.00;;;;;18.77;58.32;101205.09;5002146;28;45312;-62
2022/09/10 10:28:26;;;;;;;;;3.00;2.50;;;;;18.72;58.46;101209.75;5001978;28;45467;-61
2022/09/10 10:30:59;;;;;;;;;2.25;2.25;;;;;18.66;58.78;101207.34;5002258;28;46178;-61
2022/09/10 10:33:32;;;;;;;;;3.00;3.00;;;;;18.59;58.41;101206.72;5001900;28;45434;-60
2022/09/10 10:36:26;;;;;;;;;3.50;3.00;;;;;18.61;58.61;101204.00;5001372;28;45389;-60
2022/09/10 10:39:03;;;;;;;;;6.25;4.75;;;;;18.49;58.87;101211.53;5001956;28;45373;-61
2022/09/10 10:41:45;;;;;;;;;5.00;5.00;;;;;18.51;59.07;101208.81;5001882;28;45232;-61
2022/09/10 10:44:28;;;;;;;;;3.50;3.25;;;;;18.46;58.97;101211.66;4982203;28;45383;-61
2022/09/10 10:47:14;;;;;;;;;3.25;3.25;;;;;18.44;59.15;101213.53;5002044;28;45439;-63
2022/09/10 10:50:03;;;;;;;;;4.00;3.50;;;;;18.43;59.23;101209.13;5002002;28;45306;-61
2022/09/10 10:52:43;;;;;;;;;3.00;3.00;;;;;18.41;59.29;101210.13;5001601;28;45321;-61
2022/09/10 10:55:35;;;;;;;;;4.25;4.25;;;;;18.37;59.37;101206.72;5001927;28;45481;-61
2022/09/10 10:58:32;;;;;;;;;3.00;3.00;;;;;18.42;58.87;101209.19;5001442;28;45291;-61
2022/09/10 11:01:22;;;;;;;;;7.25;5.50;;;;;18.42;59.37;101210.03;5001641;28;45168;-61
2022/09/10 11:04:21;;;;;;;;;4.25;4.25;;;;;18.44;59.39;101209.97;5001670;28;46099;-61
2022/09/10 11:06:57;;;;;;;;;8.75;5.50;;;;;18.39;59.69;101206.63;4980951;28;45397;-61
2022/09/10 11:09:54;;;;;;;;;6.25;6.25;;;;;18.43;59.83;101200.28;4980108;28;45364;-61
2022/09/10 11:12:31;;;;;;;;;5.75;5.00;;;;;18.46;59.79;101206.34;5001101;28;45330;-61
2022/09/10 11:15:01;;;;;;;;;4.75;4.75;;;;;18.47;59.58;101205.41;5001374;28;46156;-61
2022/09/10 11:17:38;;;;;;;;;3.75;3.25;;;;;18.43;59.94;101198.47;5001718;28;45267;-62
2022/09/10 11:20:18;;;;;;;;;5.00;4.00;;;;;18.46;59.66;101190.38;5004574;28;45344;-61
2022/09/10 11:23:02;;;;;;;;;4.50;4.50;;;;;18.48;59.67;101199.16;5003307;28;45410;-62
2022/09/10 11:25:36;;;;;;;;;5.00;5.00;;;;;18.51;59.95;101200.84;4989202;28;46628;-62
2022/09/10 11:28:13;;;;;;;;;6.00;6.00;;;;;18.52;59.91;101197.25;4982211;28;45639;-62
2022/09/10 11:30:41;;;;;;;;;6.25;5.00;;;;;18.51;60.24;101195.50;5000969;28;45327;-62
2022/09/10 11:33:22;;;;;;;;;4.50;3.00;;;;;18.51;60.16;101193.75;5000650;28;45413;-62
2022/09/10 11:36:02;;;;;;;;;5.25;5.00;;;;;18.54;60.02;101195.41;5001118;28;47430;-61
2022/09/10 11:38:56;;;;;;;;;3.75;3.75;;;;;18.59;60.19;101192.53;4971559;28;45208;-61
2022/09/10 11:41:26;;;;;;;;;4.00;4.00;;;;;18.62;59.69;101192.44;5001252;28;45505;-61